메인 페이지
METAR-TAF:

METAR-TAF

공항 :

멤피스 국제공항

멤피스, 테네시, 미국

위도: 35-03-40N, 경도: 089-59-06W, 고도: 101m

현재 날씨관측

예보는 39분 전, 14:07시(UTC)에 발표되었습니다.
북서4kt
온도 27°C
습도 74%
기압 1018 hPa
시정: 16.1km
고도 1100ft 상공 구름 조금
고도 25000ft 상공 구름 보통

METAR: KMEM 251407Z 31004KT 10SM FEW011 SCT250 27/22 A3005 RMK AO2 T02720222 $

시각: 09:46 (14:46 UTC)

예보

예보는 3 시간 26분 전, 11:20시(UTC)에 발표되었습니다.
예보 대상 시간: 25일 12시부터 26일 18시까지 (UTC)
남서5kt
시정: 10km
고도 25000ft 상공 구름 보통
25일 1400시부터 (UTC)
남서6kt
시정: 10km
고도 4000ft 상공 구름 보통
고도 25000ft 상공 구름 보통
26일 0100시부터 (UTC)
5kt
시정: 10km
고도 3000ft 상공 구름 조금
고도 10000ft 상공 구름 보통
고도 25000ft 상공 구름 보통
26일 1300시부터 (UTC)
남서6kt
시정: 10km
고도 5000ft 상공 구름 보통
고도 20000ft 상공 구름 많음

TAF: KMEM 251120Z 2512/2618 23005KT P6SM SCT250 FM251400 22006KT P6SM SCT040 SCT250 FM260100 19005KT P6SM FEW030 SCT100 SCT250 FM261300 23006KT P6SM SCT050 BKN200

4,000개 이상의 공항 관측 자료 및 예보 (METAR 및 TAF 보고).

지도상에서 검색 가능한 기상관측소가 노란 점과 빨간 점으로 표시되어 있습니다.

기상관측소 명을 보려면 표시 위로 마우스를 이동하세요.

날씨 관측과 예보를 보려면 클릭하세요.

지도 변경 : 확대하려면 엑스 표시가 있는 녹색 버튼, 축소하려면 빼기 표시가 있는 녹색 버튼, 다음 페이지의 지도를 보려면 녹색 화살표를 클릭하세요.


METAR-TAF: